Terminal Aerodrome Forecast
Issued by NWS Sioux Falls, SD

Home | Current Version | Previous Version | Graphics & Text | Print | Product List | Glossary On
Versions: 1 2 3 4 5 6 7 8 9 10 11 12 13
000
FTUS43 KFSD 071321 AAA
TAFSUX
TAF AMD
KSUX 071321Z 0713/0812 31014G23KT P6SM SCT200
     FM080700 31019G28KT P6SM BKN090=

USA.gov is the U.S. government's official web portal to all federal, state and local government web resources and services.